Time;durP1;ratioP1;P1;durP2;ratioP2;P2;SDS_P1;SDS_P2;PMS_P1;PMS_P2;Temp;Humidity;BMP_temperature;BMP_pressure;BME280_temperature;BME280_humidity;BME280_pressure;Samples;Min_cycle;Max_cycle;Signal;HPM_P1;HPM_P2
2024/02/09 00:00:10;;;;;;;82.67;47.13;;;10.90;98.70;;;;;;5038724;28;20248;-83
2024/02/09 00:02:48;;;;;;;72.77;44.83;;;10.90;98.80;;;;;;4988603;28;20777;-82
2024/02/09 00:05:19;;;;;;;76.83;44.83;;;10.90;98.70;;;;;;4979142;28;20193;-82
2024/02/09 00:07:57;;;;;;;78.53;45.80;;;10.90;98.70;;;;;;4993889;28;20299;-82
2024/02/09 00:10:36;;;;;;;71.37;45.93;;;10.90;98.70;;;;;;5002331;28;20251;-82
2024/02/09 00:13:04;;;;;;;77.43;48.70;;;10.90;98.70;;;;;;4994829;28;20204;-83
2024/02/09 00:15:33;;;;;;;77.20;47.50;;;10.90;98.70;;;;;;4994789;28;20207;-82
2024/02/09 00:18:02;;;;;;;78.30;45.67;;;10.90;98.60;;;;;;4994154;28;20214;-82
2024/02/09 00:20:31;;;;;;;78.93;48.27;;;10.90;98.60;;;;;;5008749;28;20309;-82
2024/02/09 00:23:53;;;;;;;79.60;47.90;;;10.90;98.60;;;;;;5014082;28;20206;-82
2024/02/09 00:26:21;;;;;;;82.87;47.27;;;10.90;98.60;;;;;;4998332;28;20215;-81
2024/02/09 00:28:48;;;;;;;73.57;46.37;;;10.90;98.50;;;;;;4997873;28;20272;-82
2024/02/09 00:31:15;;;;;;;74.83;44.73;;;10.90;98.50;;;;;;5002444;28;20280;-83
2024/02/09 00:33:45;;;;;;;78.67;47.27;;;10.90;98.60;;;;;;5117229;28;20199;-82
2024/02/09 00:36:12;;;;;;;77.43;45.60;;;10.90;98.60;;;;;;5040097;28;20269;-83
2024/02/09 00:38:39;;;;;;;72.33;43.97;;;10.90;98.60;;;;;;4997998;28;20203;-81
2024/02/09 00:41:25;;;;;;;78.40;44.83;;;10.90;98.60;;;;;;4997686;28;20564;-82
2024/02/09 00:43:55;;;;;;;72.60;44.50;;;10.90;98.70;;;;;;5040492;28;20223;-82
2024/02/09 00:46:32;;;;;;;76.30;46.37;;;10.90;98.70;;;;;;4989128;28;20249;-82
2024/02/09 00:49:02;;;;;;;73.43;45.20;;;10.90;98.70;;;;;;5021653;28;20240;-81
2024/02/09 00:51:30;;;;;;;81.67;46.73;;;10.90;98.70;;;;;;5011011;28;20254;-82
2024/02/09 00:53:57;;;;;;;79.07;47.13;;;10.90;98.80;;;;;;4991228;28;20232;-82
2024/02/09 00:56:24;;;;;;;74.93;47.33;;;10.90;98.80;;;;;;4998976;28;20230;-83
2024/02/09 00:59:01;;;;;;;80.63;48.73;;;10.90;98.80;;;;;;4995484;28;20204;-82
2024/02/09 01:01:32;;;;;;;79.63;47.77;;;10.90;98.90;;;;;;4990544;28;20587;-82
2024/02/09 01:04:07;;;;;;;78.73;46.07;;;10.90;98.90;;;;;;4995174;28;20230;-83
2024/02/09 01:06:51;;;;;;;79.83;48.60;;;10.90;98.90;;;;;;5006526;28;20215;-82
2024/02/09 01:09:23;;;;;;;88.47;51.20;;;10.90;98.90;;;;;;5008353;28;20230;-82
2024/02/09 01:11:50;;;;;;;82.33;49.03;;;10.90;98.90;;;;;;5014832;28;20230;-84
2024/02/09 02:45:00;;;;;;;122.73;61.67;;;10.50;99.90;;;;;;5014265;28;20263;-84
2024/02/09 02:47:29;;;;;;;112.43;61.67;;;10.40;99.90;;;;;;4983785;28;20639;-83
2024/02/09 03:06:49;;;;;;;124.47;61.03;;;10.30;99.90;;;;;;5015580;28;20215;-82
2024/02/09 03:09:36;;;;;;;122.90;63.53;;;10.30;99.90;;;;;;5015823;28;20206;-83
2024/02/09 03:12:04;;;;;;;113.40;60.13;;;10.30;99.90;;;;;;4999532;28;20290;-82
2024/02/09 03:14:44;;;;;;;120.77;63.37;;;10.30;99.90;;;;;;5000308;28;20196;-82
2024/02/09 03:17:28;;;;;;;123.07;60.00;;;10.20;99.90;;;;;;5000388;28;20223;-81
2024/02/09 03:20:14;;;;;;;108.77;58.63;;;10.20;99.90;;;;;;5015336;28;20598;-82
2024/02/09 03:22:41;;;;;;;127.73;60.40;;;10.20;99.90;;;;;;5005589;28;20209;-82
2024/02/09 03:25:08;;;;;;;111.53;58.77;;;10.20;99.90;;;;;;5020722;28;20213;-82
2024/02/09 03:27:37;;;;;;;102.30;57.07;;;10.20;99.90;;;;;;4979262;28;20252;-82
2024/02/09 03:30:06;;;;;;;104.80;56.87;;;10.20;99.90;;;;;;5005248;28;20240;-83
2024/02/09 03:32:35;;;;;;;100.70;56.73;;;10.20;99.90;;;;;;5008773;28;20256;-82
2024/02/09 03:35:12;;;;;;;105.97;55.10;;;10.20;99.90;;;;;;5016933;28;20206;-83
2024/02/09 03:37:56;;;;;;;105.63;57.80;;;10.30;99.90;;;;;;5012999;28;20214;-81
2024/02/09 03:40:24;;;;;;;103.27;56.27;;;10.20;99.90;;;;;;5014979;28;20199;-83
2024/02/09 03:42:51;;;;;;;103.57;54.83;;;10.20;99.90;;;;;;4995087;28;20308;-82
2024/02/09 03:45:18;;;;;;;101.13;54.07;;;10.20;99.90;;;;;;4987887;28;20210;-82
2024/02/09 03:47:45;;;;;;;102.53;53.30;;;10.20;99.90;;;;;;4995121;28;20211;-82
2024/02/09 03:50:18;;;;;;;108.97;54.10;;;10.20;99.90;;;;;;5009144;28;20553;-82
2024/02/09 03:52:45;;;;;;;100.73;52.97;;;10.30;99.90;;;;;;4995086;28;20368;-82
2024/02/09 03:55:33;;;;;;;98.87;51.40;;;10.30;99.90;;;;;;4978764;28;20214;-82
2024/02/09 03:58:03;;;;;;;92.43;48.03;;;10.30;99.90;;;;;;4976826;28;20248;-83
2024/02/09 04:00:31;;;;;;;90.90;51.27;;;10.30;99.90;;;;;;4982324;28;20218;-82
2024/02/09 04:02:58;;;;;;;105.87;52.50;;;10.30;99.90;;;;;;4989357;28;20215;-82
2024/02/09 04:05:31;;;;;;;98.20;51.23;;;10.30;99.90;;;;;;4978341;28;20273;-83
2024/02/09 04:08:12;;;;;;;105.57;52.27;;;10.30;99.90;;;;;;5008535;28;20211;-83
2024/02/09 04:10:51;;;;;;;107.87;54.60;;;10.30;99.90;;;;;;4994820;28;20655;-82
2024/02/09 04:13:20;;;;;;;97.47;52.53;;;10.40;99.90;;;;;;4994847;28;20650;-82
2024/02/09 04:15:47;;;;;;;100.63;53.77;;;10.40;99.90;;;;;;4994931;28;20221;-82
2024/02/09 04:18:15;;;;;;;98.07;52.57;;;10.40;99.90;;;;;;4995104;28;20211;-82
2024/02/09 04:20:42;;;;;;;99.10;50.90;;;10.40;99.90;;;;;;4994860;28;20243;-82
2024/02/09 04:23:14;;;;;;;90.77;48.80;;;10.40;99.90;;;;;;4995268;28;20643;-83
2024/02/09 04:25:50;;;;;;;90.37;50.87;;;10.40;99.90;;;;;;4998683;28;20299;-82
2024/02/09 04:28:17;;;;;;;98.63;52.63;;;10.40;99.80;;;;;;4992109;28;20219;-83
2024/02/09 04:30:48;;;;;;;91.33;50.70;;;10.40;99.80;;;;;;4995046;28;20211;-83
2024/02/09 04:33:31;;;;;;;112.10;53.33;;;10.40;99.80;;;;;;4997298;28;20628;-83
2024/02/09 04:36:11;;;;;;;113.93;57.77;;;10.40;99.70;;;;;;5018359;28;20221;-83
2024/02/09 04:38:49;;;;;;;118.23;61.10;;;10.30;99.70;;;;;;5005520;28;20642;-83
2024/02/09 04:41:18;;;;;;;115.43;57.87;;;10.30;99.70;;;;;;5000083;28;20215;-83
2024/02/09 04:43:52;;;;;;;123.40;61.27;;;10.30;99.80;;;;;;5003169;28;20262;-84
2024/02/09 04:46:34;;;;;;;113.60;59.87;;;10.30;99.80;;;;;;5021480;28;20203;-83
2024/02/09 04:49:08;;;;;;;114.03;59.83;;;10.20;99.90;;;;;;5018457;28;20214;-84
2024/02/09 04:51:46;;;;;;;121.30;59.77;;;10.30;99.90;;;;;;5021645;28;20303;-83
2024/02/09 04:54:19;;;;;;;117.40;61.37;;;10.20;99.90;;;;;;5005319;28;20199;-84
2024/02/09 04:56:54;;;;;;;113.27;57.80;;;10.20;99.90;;;;;;5004000;28;20231;-84
2024/02/09 04:59:30;;;;;;;114.13;60.27;;;10.20;99.90;;;;;;5020016;28;20204;-84
2024/02/09 05:02:01;;;;;;;128.77;61.33;;;10.30;99.90;;;;;;5002792;28;20206;-83
2024/02/09 05:04:30;;;;;;;119.00;63.37;;;10.20;99.90;;;;;;5005220;28;20524;-83
2024/02/09 05:07:17;;;;;;;120.30;60.17;;;10.20;99.90;;;;;;5021933;28;20211;-83
2024/02/09 05:09:45;;;;;;;114.87;59.77;;;10.20;99.90;;;;;;5006146;28;20214;-83
2024/02/09 05:12:16;;;;;;;123.70;62.07;;;10.20;99.90;;;;;;5004371;28;20227;-84
2024/02/09 05:14:51;;;;;;;134.93;62.27;;;10.20;99.90;;;;;;5004082;28;20527;-83
2024/02/09 05:17:32;;;;;;;117.67;61.53;;;10.20;99.90;;;;;;5106918;28;20228;-83
2024/02/09 05:20:00;;;;;;;131.90;62.33;;;10.20;99.90;;;;;;5106902;28;20206;-82
2024/02/09 05:22:28;;;;;;;126.03;60.83;;;10.10;99.90;;;;;;5120716;28;20211;-83
2024/02/09 05:25:07;;;;;;;122.13;61.10;;;10.10;99.90;;;;;;5028542;28;20207;-82
2024/02/09 05:27:45;;;;;;;121.07;60.03;;;10.20;99.90;;;;;;5020200;28;20192;-83
2024/02/09 05:30:20;;;;;;;127.07;60.73;;;10.10;99.90;;;;;;5019422;28;20207;-83
2024/02/09 05:32:50;;;;;;;121.57;58.73;;;10.10;99.90;;;;;;5000759;28;20281;-83
2024/02/09 05:35:18;;;;;;;128.07;59.37;;;10.10;99.90;;;;;;5000457;28;20260;-82
2024/02/09 05:37:55;;;;;;;122.50;59.07;;;10.10;99.90;;;;;;5016177;28;20190;-82
2024/02/09 05:40:26;;;;;;;114.70;58.90;;;10.10;99.90;;;;;;5000540;28;20279;-82
2024/02/09 05:42:54;;;;;;;116.23;58.80;;;10.10;99.90;;;;;;5000375;28;20215;-83
2024/02/09 05:45:26;;;;;;;119.20;58.37;;;10.10;99.90;;;;;;4999622;28;20203;-83
2024/02/09 05:48:15;;;;;;;117.63;58.70;;;10.20;99.90;;;;;;5053432;28;20212;-83
2024/02/09 05:50:44;;;;;;;110.13;55.03;;;10.20;99.90;;;;;;5119900;28;20208;-82
2024/02/09 05:53:13;;;;;;;116.40;56.97;;;10.20;99.90;;;;;;5118794;28;20230;-83
2024/02/09 05:55:47;;;;;;;122.93;56.57;;;10.30;99.90;;;;;;5119121;28;20205;-83
2024/02/09 05:58:21;;;;;;;117.00;54.27;;;10.30;99.90;;;;;;5118438;28;20240;-83
2024/02/09 06:00:53;;;;;;;113.87;58.73;;;10.30;99.90;;;;;;5103955;28;20193;-84
2024/02/09 06:03:22;;;;;;;113.03;59.67;;;10.30;99.90;;;;;;5120057;28;20205;-83
2024/02/09 06:05:53;;;;;;;120.17;57.03;;;10.30;99.90;;;;;;5118989;28;20199;-83
2024/02/09 06:08:22;;;;;;;112.20;54.80;;;10.30;99.90;;;;;;5102106;28;20201;-83
2024/02/09 06:10:52;;;;;;;114.87;58.97;;;10.30;99.90;;;;;;5101994;28;20210;-82
2024/02/09 06:13:25;;;;;;;114.83;57.73;;;10.30;99.90;;;;;;5118561;28;20303;-82
2024/02/09 06:16:05;;;;;;;119.07;57.33;;;10.40;99.90;;;;;;5118673;28;20196;-83
2024/02/09 06:18:35;;;;;;;114.63;58.43;;;10.40;99.90;;;;;;5102289;28;20187;-84
2024/02/09 06:21:09;;;;;;;123.60;59.57;;;10.40;99.90;;;;;;5119217;28;20200;-83
2024/02/09 06:23:43;;;;;;;117.47;58.70;;;10.40;99.90;;;;;;5102023;28;20196;-84
2024/02/09 06:26:23;;;;;;;110.87;56.07;;;10.40;99.90;;;;;;5051359;28;20593;-83
2024/02/09 06:28:56;;;;;;;101.47;52.23;;;10.40;99.90;;;;;;5019091;28;20201;-83
2024/02/09 06:31:25;;;;;;;106.77;53.90;;;10.30;99.90;;;;;;5007570;28;20210;-83
2024/02/09 06:34:02;;;;;;;90.57;47.13;;;10.30;99.90;;;;;;4999444;28;20224;-83
2024/02/09 06:36:39;;;;;;;87.43;44.00;;;10.40;99.90;;;;;;5049573;28;20262;-84
2024/02/09 06:39:37;;;;;;;95.47;48.37;;;10.40;99.90;;;;;;5117853;28;20721;-84
2024/02/09 06:42:09;;;;;;;86.47;43.43;;;10.40;99.90;;;;;;5102440;28;20188;-84
2024/02/09 06:44:42;;;;;;;90.57;42.17;;;10.50;99.90;;;;;;5117937;28;20255;-83
2024/02/09 06:47:12;;;;;;;90.07;45.13;;;10.50;99.90;;;;;;5118257;28;20283;-83
2024/02/09 06:49:44;;;;;;;91.17;47.97;;;10.60;99.90;;;;;;5118108;28;20253;-83
2024/02/09 06:52:22;;;;;;;94.27;47.97;;;10.60;99.90;;;;;;5101352;28;20231;-83
2024/02/09 06:55:11;;;;;;;92.53;46.20;;;10.60;99.90;;;;;;5085748;28;20206;-82
2024/02/09 06:57:52;;;;;;;93.00;46.53;;;10.60;99.90;;;;;;4999280;28;20234;-83
2024/02/09 07:00:25;;;;;;;98.87;49.57;;;10.60;99.90;;;;;;5013114;28;20216;-82
2024/02/09 07:03:01;;;;;;;105.13;47.73;;;10.60;99.90;;;;;;4997926;28;20212;-83
2024/02/09 07:05:30;;;;;;;94.43;47.10;;;10.60;99.90;;;;;;4994659;28;20215;-82
2024/02/09 07:07:59;;;;;;;92.20;45.93;;;10.60;99.90;;;;;;5007084;28;20209;-83
2024/02/09 07:10:33;;;;;;;88.97;46.57;;;10.60;99.90;;;;;;5069198;28;20582;-83
2024/02/09 07:13:04;;;;;;;86.70;45.17;;;10.70;99.90;;;;;;4999152;28;20281;-83
2024/02/09 07:15:34;;;;;;;88.37;46.93;;;10.70;99.90;;;;;;4997951;28;20226;-83
2024/02/09 07:18:06;;;;;;;89.93;44.43;;;10.70;99.90;;;;;;4998193;28;20256;-83
2024/02/09 07:20:36;;;;;;;83.90;43.00;;;10.70;99.90;;;;;;4998536;28;20206;-83
2024/02/09 07:23:10;;;;;;;89.37;44.43;;;10.70;99.90;;;;;;4997940;28;20297;-84
2024/02/09 07:26:08;;;;;;;83.90;41.77;;;10.80;99.90;;;;;;4997858;28;20207;-83
2024/02/09 07:28:57;;;;;;;76.83;37.80;;;10.80;99.90;;;;;;5012978;28;20595;-83
2024/02/09 07:31:40;;;;;;;77.23;38.93;;;10.90;99.90;;;;;;4999603;28;20234;-83
2024/02/09 07:34:12;;;;;;;68.17;36.53;;;10.90;99.90;;;;;;5014207;28;20223;-83
2024/02/09 07:36:46;;;;;;;71.37;36.00;;;10.90;99.90;;;;;;4998412;28;20199;-84
2024/02/09 07:39:14;;;;;;;63.27;33.80;;;11.00;99.90;;;;;;4998307;28;20207;-83
2024/02/09 07:41:51;;;;;;;55.63;32.70;;;11.10;99.90;;;;;;5014160;28;20199;-83
2024/02/09 07:44:44;;;;;;;57.77;30.67;;;11.10;99.90;;;;;;4997591;28;20214;-84
2024/02/09 07:47:25;;;;;;;59.23;29.03;;;11.20;99.90;;;;;;5085718;28;20208;-84
2024/02/09 07:49:57;;;;;;;57.90;27.30;;;11.20;99.90;;;;;;5001853;28;20221;-84
2024/02/09 07:52:53;;;;;;;25.63;13.20;;;11.20;99.90;;;;;;5095575;28;20294;-84
2024/02/09 07:55:26;;;;;;;20.20;9.40;;;11.30;99.90;;;;;;5102249;28;20528;-84
2024/02/09 07:58:25;;;;;;;15.40;6.10;;;11.40;99.90;;;;;;5011507;28;20704;-84
2024/02/09 08:01:21;;;;;;;12.93;4.63;;;11.60;99.90;;;;;;5004867;28;20578;-84
2024/02/09 08:03:58;;;;;;;11.30;4.70;;;11.80;99.90;;;;;;5003350;28;20279;-84
2024/02/09 08:06:38;;;;;;;15.10;4.57;;;12.00;99.90;;;;;;5019711;28;20619;-83
2024/02/09 08:09:26;;;;;;;9.80;4.40;;;12.20;99.90;;;;;;5024045;28;20302;-84
2024/02/09 08:11:58;;;;;;;11.20;4.87;;;12.30;99.90;;;;;;5004623;28;20657;-84
2024/02/09 08:14:43;;;;;;;15.47;3.97;;;12.50;99.90;;;;;;4985983;28;20272;-83
2024/02/09 08:17:48;;;;;;;11.70;4.60;;;12.70;99.90;;;;;;5023549;28;20207;-84
2024/02/09 08:20:36;;;;;;;15.93;4.57;;;12.80;99.90;;;;;;4953297;28;20220;-83
2024/02/09 08:23:25;;;;;;;6.87;3.23;;;13.00;99.50;;;;;;4987062;28;20207;-83
2024/02/09 08:25:54;;;;;;;11.80;4.53;;;13.10;99.20;;;;;;5004727;28;20225;-84
2024/02/09 08:28:43;;;;;;;14.37;4.80;;;13.20;98.90;;;;;;5005752;28;20306;-83
2024/02/09 08:31:52;;;;;;;11.20;4.00;;;13.30;98.70;;;;;;5048362;28;20192;-83
2024/02/09 08:35:27;;;;;;;10.03;3.70;;;13.40;98.40;;;;;;5014532;28;20200;-84
2024/02/09 08:38:27;;;;;;;11.57;4.83;;;13.50;98.10;;;;;;5016867;28;20620;-83
2024/02/09 08:41:35;;;;;;;24.03;5.67;;;13.60;97.80;;;;;;5013568;28;20216;-84
2024/02/09 08:44:09;;;;;;;12.27;4.67;;;13.60;97.60;;;;;;4989436;28;20216;-83
2024/02/09 08:47:18;;;;;;;13.03;4.07;;;13.70;97.40;;;;;;4998394;28;20216;-83
2024/02/09 08:54:57;;;;;;;8.53;3.93;;;13.80;96.90;;;;;;5012733;28;20296;-84
2024/02/09 08:58:30;;;;;;;10.13;4.40;;;13.90;96.70;;;;;;5020413;28;20234;-83
2024/02/09 09:01:46;;;;;;;;;;;;;;;;;;;;;
2024/02/09 09:04:28;;;;;;;10.50;4.00;;;14.00;96.40;;;;;;5002926;28;20674;-83
2024/02/09 09:07:34;;;;;;;9.43;3.77;;;14.00;96.20;;;;;;4997130;28;20670;-85
2024/02/09 09:19:25;;;;;;;11.90;4.47;;;14.20;95.60;;;;;;5072578;28;20280;-83
2024/02/09 09:22:33;;;;;;;10.43;3.63;;;14.20;95.60;;;;;;5018482;28;20547;-83
2024/02/09 09:25:35;;;;;;;11.83;4.30;;;14.20;95.50;;;;;;5018437;28;20525;-82
2024/02/09 09:28:24;;;;;;;9.40;4.33;;;14.30;95.40;;;;;;5038375;28;20204;-83
2024/02/09 09:31:48;;;;;;;8.07;3.53;;;14.30;95.30;;;;;;5020781;28;20211;-84
2024/02/09 09:34:30;;;;;;;9.23;4.13;;;14.40;95.20;;;;;;4995152;28;20217;-82
2024/02/09 09:37:31;;;;;;;8.33;3.63;;;14.50;95.00;;;;;;5007864;28;20291;-81
2024/02/09 09:40:31;;;;;;;8.47;3.47;;;14.50;94.80;;;;;;5009120;28;20218;-84
2024/02/09 09:43:08;;;;;;;12.30;4.33;;;14.60;94.60;;;;;;5029395;28;20238;-83
2024/02/09 09:45:39;;;;;;;9.33;4.07;;;14.60;94.50;;;;;;5028340;28;20251;-84
2024/02/09 09:48:33;;;;;;;14.17;4.20;;;14.70;94.40;;;;;;4995630;28;20315;-84
2024/02/09 09:51:20;;;;;;;11.60;3.33;;;14.80;94.30;;;;;;5021911;28;20240;-84
2024/02/09 09:54:22;;;;;;;8.27;3.67;;;14.80;94.10;;;;;;5016081;28;20232;-83
2024/02/09 09:57:07;;;;;;;8.53;3.73;;;14.80;93.90;;;;;;5049698;28;20236;-85
2024/02/09 09:59:50;;;;;;;7.20;3.13;;;14.90;93.90;;;;;;5081934;28;20733;-83
2024/02/09 10:02:21;;;;;;;12.23;4.00;;;15.00;93.70;;;;;;5096343;28;20221;-83
2024/02/09 10:05:13;;;;;;;11.57;3.63;;;15.00;93.60;;;;;;5093280;27;20217;-84
2024/02/09 10:07:51;;;;;;;9.10;3.63;;;15.10;93.60;;;;;;5069695;28;20211;-82
2024/02/09 10:10:43;;;;;;;9.37;3.37;;;15.00;93.60;;;;;;5082652;28;20648;-82
2024/02/09 10:13:12;;;;;;;12.80;3.77;;;15.10;93.50;;;;;;5072641;28;20286;-82
2024/02/09 10:15:46;;;;;;;7.30;3.97;;;15.10;93.40;;;;;;5083904;28;20209;-82
2024/02/09 10:18:21;;;;;;;8.07;3.50;;;15.10;93.40;;;;;;5099521;28;20296;-84
2024/02/09 10:20:54;;;;;;;11.10;3.17;;;15.10;93.30;;;;;;5074947;28;20208;-85
2024/02/09 10:23:42;;;;;;;6.67;3.10;;;15.10;93.30;;;;;;5068273;28;20208;-84
2024/02/09 10:26:40;;;;;;;13.23;3.77;;;15.10;93.10;;;;;;5102978;28;20216;-83
2024/02/09 10:29:24;;;;;;;9.03;3.53;;;15.20;93.00;;;;;;5011709;28;20270;-83
2024/02/09 10:32:04;;;;;;;10.40;3.70;;;15.20;93.00;;;;;;4991629;28;20205;-83
2024/02/09 10:34:36;;;;;;;13.37;3.67;;;15.30;92.90;;;;;;5002651;28;20220;-83
2024/02/09 10:37:11;;;;;;;12.93;3.73;;;15.30;92.80;;;;;;4983263;28;20206;-83
2024/02/09 10:40:15;;;;;;;10.63;3.40;;;15.30;92.70;;;;;;4983884;28;20235;-82
2024/02/09 10:42:45;;;;;;;13.70;3.40;;;15.40;92.60;;;;;;5001363;28;20239;-84
2024/02/09 10:45:25;;;;;;;20.33;5.07;;;15.50;92.40;;;;;;4993029;28;20220;-84
2024/02/09 10:47:59;;;;;;;12.67;5.50;;;15.50;92.30;;;;;;4994624;28;20260;-83
2024/02/09 10:50:41;;;;;;;16.70;5.90;;;15.50;92.20;;;;;;5010108;28;20205;-82
2024/02/09 10:53:23;;;;;;;16.37;5.27;;;15.50;92.20;;;;;;4997889;28;20229;-84
2024/02/09 10:56:03;;;;;;;8.50;3.50;;;15.60;92.10;;;;;;5014998;28;20303;-80
2024/02/09 10:58:53;;;;;;;12.30;4.30;;;15.60;92.00;;;;;;5014942;28;20213;-83
2024/02/09 11:01:56;;;;;;;11.80;3.67;;;15.70;91.90;;;;;;5009621;28;20199;-83
2024/02/09 11:04:54;;;;;;;11.47;3.40;;;15.80;91.90;;;;;;5003157;28;20229;-82
2024/02/09 11:07:52;;;;;;;8.10;3.23;;;15.90;91.80;;;;;;5002572;28;20219;-83
2024/02/09 11:10:56;;;;;;;10.60;3.33;;;15.90;91.90;;;;;;5026506;28;20627;-83
2024/02/09 11:13:33;;;;;;;13.87;4.00;;;16.00;91.70;;;;;;5009313;28;20244;-83
2024/02/09 11:16:08;;;;;;;18.17;3.60;;;16.10;91.50;;;;;;5011277;28;20228;-82
2024/02/09 11:18:57;;;;;;;7.43;3.47;;;16.10;91.30;;;;;;5002325;28;20197;-82
2024/02/09 11:22:14;;;;;;;11.33;3.50;;;16.10;91.20;;;;;;5001636;28;20230;-83
2024/02/09 11:24:51;;;;;;;10.97;3.83;;;16.20;91.10;;;;;;5005984;28;20240;-84
2024/02/09 11:27:41;;;;;;;15.00;3.77;;;16.20;90.90;;;;;;5008153;28;20209;-84
2024/02/09 11:30:13;;;;;;;16.07;4.00;;;16.20;90.90;;;;;;5014957;28;20201;-80
2024/02/09 11:32:40;;;;;;;9.70;2.70;;;16.30;90.80;;;;;;5038317;28;20299;-82
2024/02/09 11:35:10;;;;;;;10.53;3.60;;;16.40;90.70;;;;;;4999848;28;20220;-83
2024/02/09 11:37:38;;;;;;;9.73;3.10;;;16.40;90.50;;;;;;5015231;28;20274;-82
2024/02/09 11:40:06;;;;;;;8.00;2.70;;;16.50;90.40;;;;;;5014774;28;20345;-82
2024/02/09 11:42:33;;;;;;;12.03;3.37;;;16.50;90.30;;;;;;4983715;28;20200;-83
2024/02/09 11:45:01;;;;;;;12.40;3.60;;;16.60;90.20;;;;;;4998828;28;20206;-83
2024/02/09 11:47:32;;;;;;;8.93;3.00;;;16.60;90.10;;;;;;4993977;28;20232;-81
2024/02/09 11:49:59;;;;;;;7.73;3.70;;;16.70;89.90;;;;;;5011483;28;20270;-83
2024/02/09 11:52:27;;;;;;;9.47;3.10;;;16.70;89.50;;;;;;5017731;28;20210;-83
2024/02/09 11:54:55;;;;;;;14.07;3.67;;;16.70;89.10;;;;;;4997289;28;20220;-83
2024/02/09 11:57:22;;;;;;;13.97;3.27;;;16.70;88.60;;;;;;4995371;28;20272;-83
2024/02/09 11:59:49;;;;;;;8.73;3.50;;;16.70;88.60;;;;;;5019067;28;20208;-83
2024/02/09 12:02:17;;;;;;;14.83;3.43;;;16.70;88.50;;;;;;5011959;28;20228;-83
2024/02/09 12:04:44;;;;;;;8.77;3.47;;;16.60;88.20;;;;;;5028974;28;20228;-82
2024/02/09 12:07:12;;;;;;;9.67;3.53;;;16.60;88.20;;;;;;4997628;28;20621;-82
2024/02/09 12:09:40;;;;;;;8.60;3.57;;;16.60;88.30;;;;;;4998992;28;20585;-83
2024/02/09 12:12:07;;;;;;;9.20;3.20;;;16.60;88.40;;;;;;5034820;28;20282;-84
2024/02/09 12:14:37;;;;;;;10.43;3.83;;;16.50;88.30;;;;;;5014417;28;20229;-81
2024/02/09 12:17:11;;;;;;;11.73;3.27;;;16.50;88.30;;;;;;5013477;28;20236;-83
2024/02/09 12:19:39;;;;;;;9.20;3.60;;;16.50;88.20;;;;;;4999959;28;20199;-81
2024/02/09 12:22:06;;;;;;;6.40;3.90;;;16.50;89.10;;;;;;5014106;28;20221;-83
2024/02/09 12:24:35;;;;;;;14.47;3.43;;;16.50;88.50;;;;;;4985727;28;20209;-83
2024/02/09 12:27:15;;;;;;;9.93;3.30;;;16.40;88.40;;;;;;4995975;28;20225;-82
2024/02/09 12:29:46;;;;;;;8.93;3.50;;;16.40;88.20;;;;;;5022025;28;20209;-82
2024/02/09 12:32:14;;;;;;;10.57;3.47;;;16.40;88.20;;;;;;4997056;28;20201;-81
2024/02/09 12:34:46;;;;;;;11.93;3.73;;;16.40;88.10;;;;;;5003699;28;20276;-83
2024/02/09 12:37:16;;;;;;;9.67;3.70;;;16.40;88.10;;;;;;5016930;28;20227;-82
2024/02/09 12:39:53;;;;;;;7.30;3.73;;;16.40;88.10;;;;;;5023888;28;20288;-83
2024/02/09 12:42:22;;;;;;;11.10;3.30;;;16.40;88.20;;;;;;4997001;28;20538;-82
2024/02/09 12:44:50;;;;;;;8.57;3.23;;;16.40;88.20;;;;;;5007450;28;20615;-82
2024/02/09 12:47:17;;;;;;;8.03;3.27;;;16.40;88.30;;;;;;5003134;28;20213;-82
2024/02/09 12:49:49;;;;;;;12.30;3.27;;;16.40;88.30;;;;;;5003973;28;20212;-81
2024/02/09 12:52:19;;;;;;;13.53;3.07;;;16.40;88.40;;;;;;4993991;28;20202;-81
2024/02/09 12:54:47;;;;;;;14.60;5.57;;;16.40;88.50;;;;;;5011472;28;20230;-81
2024/02/09 12:57:14;;;;;;;12.17;3.40;;;16.40;88.80;;;;;;5041158;28;20238;-85
2024/02/09 12:59:42;;;;;;;8.50;3.50;;;16.40;89.00;;;;;;5012871;28;20291;-78
2024/02/09 13:02:12;;;;;;;14.67;3.60;;;16.30;89.30;;;;;;5032512;28;20202;-83
2024/02/09 13:04:39;;;;;;;12.47;4.53;;;16.30;89.50;;;;;;5025396;28;20209;-82
2024/02/09 13:07:07;;;;;;;19.77;4.60;;;16.30;89.60;;;;;;5001806;28;20235;-82
2024/02/09 13:09:34;;;;;;;13.47;5.10;;;16.30;89.70;;;;;;5026075;28;20210;-82
2024/02/09 13:12:03;;;;;;;10.10;4.00;;;16.20;89.70;;;;;;5007011;28;20251;-82
2024/02/09 13:14:30;;;;;;;15.30;4.57;;;16.20;89.70;;;;;;4999028;28;20316;-82
2024/02/09 13:16:57;;;;;;;13.83;4.20;;;16.20;89.60;;;;;;4998310;28;20626;-81
2024/02/09 13:19:25;;;;;;;10.70;4.40;;;16.20;89.50;;;;;;5000952;28;20220;-82
2024/02/09 13:21:55;;;;;;;17.37;4.93;;;16.20;89.40;;;;;;5011957;28;20220;-82
2024/02/09 13:24:23;;;;;;;19.40;8.60;;;16.20;89.30;;;;;;5021495;28;20216;-84
2024/02/09 13:26:50;;;;;;;16.13;6.10;;;16.20;89.10;;;;;;5018083;28;20208;-81
2024/02/09 13:29:24;;;;;;;12.00;3.93;;;16.20;89.00;;;;;;5015283;28;20302;-83
2024/02/09 13:31:52;;;;;;;12.60;3.73;;;16.10;88.80;;;;;;5012285;28;20211;-81
2024/02/09 13:34:24;;;;;;;13.57;4.17;;;16.10;88.90;;;;;;5007878;28;20223;-83
2024/02/09 13:36:51;;;;;;;7.17;3.20;;;16.10;89.10;;;;;;5000266;28;20231;-83
2024/02/09 13:39:19;;;;;;;15.33;4.07;;;16.00;89.20;;;;;;5014221;28;20214;-81
2024/02/09 13:41:46;;;;;;;12.60;4.53;;;16.00;89.20;;;;;;4992516;28;20216;-81
2024/02/09 13:44:15;;;;;;;8.93;2.97;;;16.00;89.30;;;;;;5010977;28;20267;-82
2024/02/09 13:46:43;;;;;;;11.97;4.40;;;16.00;89.40;;;;;;5011800;28;20206;-82
2024/02/09 13:49:13;;;;;;;13.77;4.07;;;15.90;89.50;;;;;;5074522;28;20204;-82
2024/02/09 13:51:41;;;;;;;12.47;4.93;;;15.90;89.80;;;;;;5068353;28;20224;-82
2024/02/09 13:54:08;;;;;;;12.77;4.90;;;15.90;90.00;;;;;;5015052;28;20236;-82
2024/02/09 13:56:38;;;;;;;11.97;4.17;;;15.80;90.10;;;;;;5004510;28;20207;-81
2024/02/09 13:59:06;;;;;;;17.27;4.27;;;15.80;90.20;;;;;;4998779;28;20204;-81
2024/02/09 14:01:34;;;;;;;14.37;3.80;;;15.80;90.20;;;;;;5028903;28;20208;-82
2024/02/09 14:04:06;;;;;;;14.93;5.00;;;15.70;90.30;;;;;;4991041;28;20212;-82
2024/02/09 14:06:35;;;;;;;10.80;4.30;;;15.70;90.40;;;;;;5011968;28;20211;-83
2024/02/09 14:09:03;;;;;;;12.67;4.10;;;15.70;90.50;;;;;;4995072;28;20206;-81
2024/02/09 14:11:30;;;;;;;13.73;4.50;;;15.70;90.60;;;;;;5007681;28;20235;-82
2024/02/09 14:13:58;;;;;;;15.73;4.37;;;15.60;90.60;;;;;;5020482;28;20246;-82
2024/02/09 14:16:28;;;;;;;12.40;4.23;;;15.60;90.70;;;;;;5001992;28;20228;-83
2024/02/09 14:18:55;;;;;;;11.80;4.43;;;15.60;90.70;;;;;;5004177;28;20204;-81
2024/02/09 14:21:23;;;;;;;11.67;3.97;;;15.60;90.70;;;;;;5023562;28;20199;-81
2024/02/09 14:23:51;;;;;;;14.07;4.30;;;15.50;90.70;;;;;;5004477;28;20242;-82
2024/02/09 14:26:19;;;;;;;14.23;4.27;;;15.50;90.70;;;;;;5017547;28;20208;-81
2024/02/09 14:28:46;;;;;;;13.40;4.33;;;15.50;90.70;;;;;;5005552;28;20209;-83
2024/02/09 14:31:14;;;;;;;9.40;4.20;;;15.50;90.70;;;;;;4998337;28;20209;-83
2024/02/09 14:33:41;;;;;;;13.83;4.37;;;15.50;90.70;;;;;;5028499;28;20216;-81
2024/02/09 14:36:16;;;;;;;9.57;4.40;;;15.50;90.70;;;;;;5017321;28;20196;-84
2024/02/09 14:38:44;;;;;;;15.40;4.80;;;15.40;90.70;;;;;;5057817;28;20244;-82
2024/02/09 14:41:15;;;;;;;15.13;4.20;;;15.40;90.70;;;;;;5075672;28;20204;-83
2024/02/09 14:43:42;;;;;;;13.10;4.10;;;15.40;90.70;;;;;;4995553;28;20211;-83
2024/02/09 14:46:15;;;;;;;13.80;4.77;;;15.40;90.80;;;;;;5027312;28;20247;-84
2024/02/09 14:48:42;;;;;;;11.27;4.20;;;15.40;90.90;;;;;;5017119;28;20215;-83
2024/02/09 14:51:10;;;;;;;13.40;4.77;;;15.40;91.00;;;;;;5000693;28;20252;-83
2024/02/09 14:53:38;;;;;;;11.63;4.70;;;15.30;91.00;;;;;;5085520;28;20197;-83
2024/02/09 14:56:07;;;;;;;12.23;4.80;;;15.30;91.10;;;;;;4999380;28;20210;-82
2024/02/09 14:58:35;;;;;;;9.33;4.63;;;15.30;91.10;;;;;;5022839;28;20226;-83
2024/02/09 15:01:03;;;;;;;9.33;4.77;;;15.30;91.20;;;;;;5024961;28;20236;-83
2024/02/09 15:03:37;;;;;;;20.07;5.40;;;15.30;91.30;;;;;;5020031;28;20284;-83
2024/02/09 15:06:10;;;;;;;16.33;6.53;;;15.20;91.40;;;;;;5019602;28;20200;-83
2024/02/09 15:08:48;;;;;;;13.73;6.43;;;15.20;91.60;;;;;;5093659;28;20207;-83
2024/02/09 15:11:23;;;;;;;13.33;5.93;;;15.10;91.80;;;;;;5022364;28;20210;-86
2024/02/09 15:13:52;;;;;;;14.70;7.40;;;15.10;92.10;;;;;;5004806;28;20221;-84
2024/02/09 15:16:19;;;;;;;14.00;6.87;;;15.00;92.20;;;;;;5012882;28;20212;-84
2024/02/09 15:18:47;;;;;;;19.10;5.87;;;14.90;92.40;;;;;;5001988;28;20203;-83